Time;durP1;ratioP1;P1;durP2;ratioP2;P2;SDS_P1;SDS_P2;PMS_P1;PMS_P2;Temp;Humidity;BMP_temperature;BMP_pressure;BME280_temperature;BME280_humidity;BME280_pressure;Samples;Min_cycle;Max_cycle;Signal;HPM_P1;HPM_P2
2023/03/11 00:09:27;;;;;;;0.20;0.10;;;18.50;99.90;;;;;;21159029;28;20443;-71
2023/03/11 00:19:31;;;;;;;0.20;0.10;;;18.70;99.90;;;;;;21158586;28;21017;-72
2023/03/11 00:29:36;;;;;;;0.20;0.10;;;18.80;99.90;;;;;;21157481;28;20394;-71
2023/03/11 00:39:39;;;;;;;0.20;0.10;;;18.80;99.90;;;;;;21125542;28;20402;-70
2023/03/11 00:49:46;;;;;;;0.20;0.10;;;18.90;99.90;;;;;;21125672;27;20965;-71
2023/03/11 00:59:49;;;;;;;0.20;0.10;;;18.80;99.90;;;;;;21109079;28;20425;-70
2023/03/11 01:09:54;;;;;;;0.20;0.10;;;18.80;99.90;;;;;;21108914;28;20402;-70
2023/03/11 01:19:58;;;;;;;0.20;0.10;;;18.80;99.90;;;;;;21109523;28;20426;-70
2023/03/11 01:30:04;;;;;;;0.20;0.10;;;18.80;99.90;;;;;;21107164;28;20497;-70
2023/03/11 01:40:14;;;;;;;0.20;0.10;;;18.70;99.90;;;;;;21106585;28;20921;-70
2023/03/11 01:50:19;;;;;;;0.20;0.10;;;18.70;99.90;;;;;;21106084;28;20890;-69
2023/03/11 02:00:23;;;;;;;0.20;0.10;;;18.70;99.90;;;;;;21106291;28;20417;-70
2023/03/11 02:10:29;;;;;;;0.20;0.10;;;18.70;99.90;;;;;;21104922;28;20395;-69
2023/03/11 02:20:42;;;;;;;0.20;0.10;;;18.60;99.90;;;;;;21103978;28;20402;-71
2023/03/11 02:30:49;;;;;;;0.20;0.10;;;18.40;99.90;;;;;;21119694;27;20439;-70
2023/03/11 02:40:56;;;;;;;0.20;0.10;;;18.60;99.90;;;;;;21103190;28;20810;-69
2023/03/11 02:51:02;;;;;;;0.20;0.10;;;18.80;99.90;;;;;;21101791;28;20490;-70
2023/03/11 03:01:06;;;;;;;0.20;0.10;;;18.90;99.90;;;;;;21102039;28;20433;-70
2023/03/11 03:11:12;;;;;;;0.20;0.10;;;18.80;99.90;;;;;;21105165;28;20899;-70
2023/03/11 03:21:15;;;;;;;0.20;0.10;;;19.00;99.90;;;;;;21117651;28;20430;-70
2023/03/11 03:31:21;;;;;;;0.20;0.10;;;18.80;99.90;;;;;;21117854;28;20729;-70
2023/03/11 03:41:25;;;;;;;0.20;0.10;;;18.90;99.90;;;;;;21116543;28;20492;-71
2023/03/11 03:51:30;;;;;;;0.20;0.10;;;18.70;99.90;;;;;;21109503;27;20435;-71
2023/03/11 04:01:34;;;;;;;0.20;0.10;;;18.50;99.90;;;;;;21114705;28;20393;-70
2023/03/11 04:11:39;;;;;;;0.20;0.10;;;18.40;99.90;;;;;;21114327;28;20772;-70
2023/03/11 04:21:43;;;;;;;0.20;0.10;;;18.40;99.90;;;;;;21096179;28;20440;-71
2023/03/11 04:31:49;;;;;;;0.20;0.10;;;18.10;99.90;;;;;;21112930;28;20402;-71
2023/03/11 04:41:53;;;;;;;0.20;0.10;;;18.20;99.90;;;;;;21113894;27;20449;-69
2023/03/11 04:51:58;;;;;;;0.20;0.10;;;18.00;99.90;;;;;;21111270;28;20395;-70
2023/03/11 05:02:01;;;;;;;0.20;0.10;;;17.80;99.90;;;;;;21111001;28;20754;-70
2023/03/11 05:12:08;;;;;;;0.20;0.10;;;17.70;99.90;;;;;;21109586;28;20438;-69
2023/03/11 05:22:12;;;;;;;0.20;0.10;;;17.80;99.90;;;;;;21110311;28;20726;-71
2023/03/11 05:32:18;;;;;;;0.20;0.00;;;17.60;99.90;;;;;;21108289;28;20493;-71
2023/03/11 05:42:21;;;;;;;0.20;0.10;;;17.70;99.90;;;;;;21106841;28;20873;-71
2023/03/11 05:52:26;;;;;;;0.20;0.10;;;17.80;99.90;;;;;;21103691;28;20410;-70
2023/03/11 06:02:30;;;;;;;0.20;0.10;;;17.90;99.90;;;;;;21105896;28;20487;-71
2023/03/11 06:12:37;;;;;;;0.20;0.10;;;18.00;99.90;;;;;;21106085;27;20925;-72
2023/03/11 06:22:41;;;;;;;0.20;0.10;;;17.90;99.90;;;;;;21105462;28;20442;-70
2023/03/11 06:32:46;;;;;;;0.20;0.10;;;17.90;99.90;;;;;;21102913;28;20488;-71
2023/03/11 06:42:51;;;;;;;0.20;0.10;;;18.00;99.90;;;;;;21082557;28;20394;-68
2023/03/11 06:52:57;;;;;;;0.20;0.10;;;17.90;99.90;;;;;;21102386;28;20861;-70
2023/03/11 07:03:01;;;;;;;0.20;0.10;;;17.90;99.90;;;;;;21102200;28;20451;-71
2023/03/11 07:13:06;;;;;;;0.20;0.10;;;18.00;99.90;;;;;;21102589;28;20398;-70
2023/03/11 07:23:10;;;;;;;0.20;0.10;;;18.30;99.90;;;;;;21071238;28;20427;-73
2023/03/11 07:33:16;;;;;;;0.20;0.10;;;18.40;99.90;;;;;;21064598;28;20400;-72
2023/03/11 07:43:19;;;;;;;0.20;0.10;;;18.30;99.90;;;;;;21098342;28;20408;-69
2023/03/11 07:53:25;;;;;;;0.20;0.10;;;18.50;99.90;;;;;;21087693;28;20465;-70
2023/03/11 08:03:29;;;;;;;0.20;0.10;;;18.60;99.90;;;;;;21133767;28;20815;-72
2023/03/11 08:13:34;;;;;;;0.20;0.08;;;18.80;99.90;;;;;;21114930;28;20514;-71
2023/03/11 08:23:38;;;;;;;0.20;0.10;;;18.80;99.90;;;;;;21072168;28;20415;-69
2023/03/11 08:33:45;;;;;;;0.20;0.10;;;19.00;99.90;;;;;;21086232;28;20525;-71
2023/03/11 08:43:51;;;;;;;0.20;0.10;;;19.20;99.90;;;;;;21112471;28;20532;-69
2023/03/11 08:53:56;;;;;;;0.20;0.10;;;19.50;99.90;;;;;;21150034;28;20446;-70
2023/03/11 09:04:00;;;;;;;0.20;0.00;;;19.90;99.90;;;;;;21128041;28;20404;-70
2023/03/11 09:14:06;;;;;;;0.20;0.00;;;20.00;99.90;;;;;;21103120;27;20986;-70
2023/03/11 09:24:10;;;;;;;0.20;0.00;;;20.10;99.90;;;;;;21119280;28;20814;-71
2023/03/11 09:34:16;;;;;;;0.20;0.10;;;20.30;99.90;;;;;;21078213;28;20411;-71
2023/03/11 09:44:26;;;;;;;0.20;0.10;;;20.70;99.90;;;;;;21089291;28;20410;-70
2023/03/11 09:54:36;;;;;;;0.20;0.00;;;21.60;99.90;;;;;;21147481;28;20430;-70
2023/03/11 10:04:45;;;;;;;0.20;0.00;;;21.40;99.90;;;;;;21105230;28;20412;-71
2023/03/11 10:15:03;;;;;;;0.20;0.10;;;21.60;99.90;;;;;;21094230;28;20402;-71
2023/03/11 10:25:14;;;;;;;0.20;0.10;;;21.60;99.90;;;;;;21044560;28;20428;-77
2023/03/11 10:35:24;;;;;;;0.20;0.00;;;21.90;99.90;;;;;;21057041;28;20499;-71
2023/03/11 10:45:32;;;;;;;0.20;0.00;;;22.10;99.90;;;;;;21056480;28;20429;-69
2023/03/11 10:55:46;;;;;;;0.20;0.00;;;22.30;99.90;;;;;;21056189;28;20894;-71
2023/03/11 11:05:59;;;;;;;0.20;0.00;;;22.80;99.90;;;;;;21071093;28;20457;-70
2023/03/11 11:16:09;;;;;;;0.20;0.00;;;22.90;99.90;;;;;;21052161;28;20817;-70
2023/03/11 11:26:18;;;;;;;0.20;0.00;;;23.60;99.90;;;;;;21058218;28;20459;-73
2023/03/11 11:36:27;;;;;;;0.20;0.00;;;24.80;99.90;;;;;;21105517;28;20485;-70
2023/03/11 11:46:37;;;;;;;0.20;0.00;;;25.60;99.90;;;;;;21158262;28;20710;-70
2023/03/11 11:56:42;;;;;;;0.20;0.00;;;25.60;99.90;;;;;;21156400;28;20443;-69
2023/03/11 12:06:54;;;;;;;0.20;0.00;;;24.60;99.90;;;;;;21156747;28;20418;-70
2023/03/11 12:17:01;;;;;;;0.20;0.00;;;24.60;99.90;;;;;;21156356;27;20391;-73
2023/03/11 12:27:18;;;;;;;0.20;0.00;;;24.70;99.90;;;;;;21137503;28;20406;-69
2023/03/11 12:37:24;;;;;;;0.20;0.00;;;24.50;99.90;;;;;;21107100;28;20392;-70
2023/03/11 12:47:28;;;;;;;0.20;0.00;;;24.30;99.90;;;;;;21068203;28;20430;-70
2023/03/11 12:57:40;;;;;;;0.20;0.00;;;24.40;99.90;;;;;;21072268;28;20518;-71
2023/03/11 13:07:50;;;;;;;0.20;0.10;;;24.70;99.90;;;;;;21097151;28;20596;-67
2023/03/11 13:18:02;;;;;;;0.20;0.00;;;25.50;99.90;;;;;;21147015;27;20508;-70
2023/03/11 13:28:31;;;;;;;0.20;0.00;;;26.00;99.90;;;;;;21075825;28;20408;-71
2023/03/11 13:39:05;;;;;;;0.20;0.00;;;25.80;99.90;;;;;;21093717;28;20463;-68
2023/03/11 13:49:23;;;;;;;0.20;0.00;;;26.10;99.90;;;;;;21140686;28;20467;-69
2023/03/11 13:59:30;;;;;;;0.20;0.00;;;26.80;99.90;;;;;;21144287;28;20395;-71
2023/03/11 14:09:34;;;;;;;0.20;0.00;;;26.50;99.90;;;;;;21131752;28;20935;-71
2023/03/11 14:19:39;;;;;;;0.20;0.00;;;26.10;99.90;;;;;;21078610;28;20946;-71
2023/03/11 14:29:44;;;;;;;0.20;0.00;;;26.30;99.90;;;;;;21098541;28;20881;-72
2023/03/11 14:39:49;;;;;;;0.20;0.00;;;27.80;99.90;;;;;;21124066;28;20821;-71
2023/03/11 14:49:56;;;;;;;0.20;0.00;;;31.90;99.90;;;;;;21098909;28;20511;-71
2023/03/11 15:00:07;;;;;;;0.20;0.00;;;31.90;99.90;;;;;;21124448;28;20401;-70
2023/03/11 15:10:12;;;;;;;0.20;0.00;;;31.70;99.90;;;;;;21121716;28;20514;-70
2023/03/11 15:20:28;;;;;;;0.20;0.00;;;29.90;99.90;;;;;;21139532;28;20928;-70
2023/03/11 15:30:32;;;;;;;0.20;0.00;;;30.70;99.90;;;;;;21137376;28;20427;-71
2023/03/11 15:40:37;;;;;;;0.20;0.00;;;31.10;99.90;;;;;;21110302;28;20495;-71
2023/03/11 15:50:50;;;;;;;0.20;0.00;;;29.80;99.90;;;;;;21138250;28;20402;-71
2023/03/11 16:01:06;;;;;;;0.20;0.00;;;26.80;99.90;;;;;;21138618;28;20463;-74
2023/03/11 16:11:12;;;;;;;0.20;0.00;;;26.30;99.90;;;;;;21140486;28;20410;-73
2023/03/11 16:21:21;;;;;;;0.20;0.00;;;26.00;99.90;;;;;;21100320;28;20404;-72
2023/03/11 16:31:25;;;;;;;0.20;0.00;;;24.80;99.90;;;;;;21070161;28;20420;-72
2023/03/11 16:41:40;;;;;;;0.20;0.00;;;23.70;99.90;;;;;;21123933;28;20407;-74
2023/03/11 16:51:45;;;;;;;0.20;0.00;;;23.10;99.90;;;;;;21065303;28;20426;-75
2023/03/11 17:01:55;;;;;;;0.20;0.00;;;22.70;99.90;;;;;;21067933;28;20545;-73
2023/03/11 17:12:00;;;;;;;0.20;0.10;;;22.30;99.90;;;;;;21066728;28;20726;-74
2023/03/11 17:22:05;;;;;;;0.20;0.00;;;20.80;99.90;;;;;;21100111;28;20415;-72
2023/03/11 17:32:12;;;;;;;0.20;0.00;;;20.20;99.90;;;;;;21126093;27;20468;-73
2023/03/11 17:42:22;;;;;;;0.20;0.00;;;19.60;99.90;;;;;;21149388;28;20433;-71
2023/03/11 17:52:26;;;;;;;0.20;0.00;;;19.30;99.90;;;;;;21148841;28;20406;-72
2023/03/11 18:02:31;;;;;;;0.20;0.10;;;18.80;99.90;;;;;;21146504;28;20966;-69
2023/03/11 18:12:35;;;;;;;0.20;0.10;;;18.80;99.90;;;;;;21146708;28;20743;-71
2023/03/11 18:22:41;;;;;;;0.20;0.07;;;18.80;99.90;;;;;;21146186;28;20387;-71
2023/03/11 18:32:48;;;;;;;0.20;0.10;;;18.60;99.90;;;;;;21139340;28;20477;-68
2023/03/11 18:42:54;;;;;;;0.20;0.00;;;18.40;99.90;;;;;;21081529;28;20447;-71
2023/03/11 18:52:59;;;;;;;0.20;0.10;;;18.20;99.90;;;;;;21097611;28;20419;-71
2023/03/11 19:03:06;;;;;;;0.20;0.00;;;18.00;99.90;;;;;;21111906;28;20413;-70
2023/03/11 19:13:10;;;;;;;0.20;0.10;;;18.20;99.90;;;;;;21112504;28;20416;-68
2023/03/11 19:23:16;;;;;;;0.20;0.08;;;18.10;99.90;;;;;;21092023;28;20396;-70
2023/03/11 19:33:22;;;;;;;0.20;0.00;;;17.90;99.90;;;;;;21099888;28;20482;-70
2023/03/11 19:43:28;;;;;;;0.20;0.10;;;17.90;99.90;;;;;;21136679;28;20954;-71
2023/03/11 19:53:34;;;;;;;0.20;0.10;;;18.00;99.90;;;;;;21105749;28;20735;-69
2023/03/11 20:03:39;;;;;;;0.20;0.10;;;17.90;99.90;;;;;;21104020;28;20756;-69
2023/03/11 20:13:43;;;;;;;0.20;0.10;;;17.80;99.90;;;;;;21067019;28;20420;-69
2023/03/11 20:23:49;;;;;;;0.20;0.10;;;17.40;99.90;;;;;;21083433;28;20551;-70
2023/03/11 20:33:53;;;;;;;0.20;0.10;;;17.60;99.90;;;;;;21094524;28;20859;-69
2023/03/11 20:44:11;;;;;;;0.20;0.10;;;17.40;99.90;;;;;;21062536;28;20454;-71
2023/03/11 20:54:19;;;;;;;0.20;0.10;;;17.70;99.90;;;;;;21099437;28;20423;-70
2023/03/11 21:04:24;;;;;;;0.20;0.10;;;17.40;99.90;;;;;;21107535;28;20491;-70
2023/03/11 21:14:40;;;;;;;0.20;0.00;;;17.40;99.90;;;;;;21107611;28;20900;-71
2023/03/11 21:24:45;;;;;;;0.20;0.10;;;17.10;99.90;;;;;;21120199;28;20419;-70
2023/03/11 21:34:49;;;;;;;0.20;0.00;;;17.00;99.90;;;;;;21090243;28;20837;-69
2023/03/11 21:44:55;;;;;;;0.20;0.00;;;16.90;99.90;;;;;;21146474;28;20406;-69
2023/03/11 21:54:59;;;;;;;0.20;0.10;;;16.40;99.90;;;;;;21134010;28;20425;-70
2023/03/11 22:05:04;;;;;;;0.20;0.08;;;16.30;99.90;;;;;;21136778;28;20387;-70
2023/03/11 22:15:09;;;;;;;0.20;0.00;;;16.50;99.90;;;;;;21118919;28;20488;-69
2023/03/11 22:25:14;;;;;;;0.20;0.10;;;16.50;99.90;;;;;;21059102;28;20411;-70
2023/03/11 22:35:18;;;;;;;0.20;0.00;;;16.10;99.90;;;;;;21087033;28;20406;-70
2023/03/11 22:45:23;;;;;;;0.20;0.10;;;15.70;99.90;;;;;;21130497;28;20406;-69
2023/03/11 22:55:27;;;;;;;0.20;0.10;;;15.20;99.90;;;;;;21045588;28;20423;-69
2023/03/11 23:05:39;;;;;;;0.20;0.10;;;15.30;99.90;;;;;;21081518;28;20578;-69
2023/03/11 23:15:44;;;;;;;0.20;0.00;;;15.10;99.90;;;;;;21054197;28;20412;-69
2023/03/11 23:25:50;;;;;;;0.20;0.00;;;15.20;99.90;;;;;;21119465;28;21270;-68
2023/03/11 23:35:54;;;;;;;0.20;0.00;;;14.90;99.90;;;;;;21150252;28;20833;-68
2023/03/11 23:45:59;;;;;;;0.20;0.00;;;14.70;99.90;;;;;;21143670;28;20805;-69
2023/03/11 23:56:07;;;;;;;0.20;0.08;;;14.50;99.90;;;;;;21084127;28;20730;-69
